createdAt,value
2023-05-08T09:25:46.477Z,11.73
2023-05-08T09:28:16.347Z,10.90
2023-05-08T09:29:20.782Z,9.60
2023-05-08T09:30:22.176Z,10.15
2023-05-08T09:31:34.911Z,8.75
2023-05-08T09:32:38.441Z,11.52
2023-05-08T09:33:44.409Z,12.05
2023-05-08T09:34:52.443Z,10.70
2023-05-08T09:35:56.812Z,11.00
2023-05-08T09:37:07.421Z,10.98
2023-05-08T09:38:08.767Z,10.27
2023-05-08T09:39:14.119Z,10.40
2023-05-08T09:40:21.407Z,8.38
2023-05-08T09:41:24.071Z,16.50
2023-05-08T09:42:37.753Z,8.88
2023-05-08T09:43:39.455Z,8.93
2023-05-08T09:44:54.021Z,12.60
2023-05-08T09:45:55.552Z,9.38
2023-05-08T09:47:11.234Z,14.52
2023-05-08T09:48:12.610Z,10.40
2023-05-08T09:49:18.126Z,8.73
2023-05-08T09:50:19.611Z,11.35
2023-05-08T09:51:21.687Z,8.55
2023-05-08T09:52:24.045Z,7.32
2023-05-08T09:53:32.282Z,11.15
2023-05-08T09:54:34.793Z,6.18
2023-05-08T09:55:48.671Z,8.70
2023-05-08T09:56:50.939Z,6.70
2023-05-08T09:57:59.879Z,12.75
2023-05-08T09:59:03.586Z,9.15
2023-05-08T10:00:08.920Z,9.27
2023-05-08T10:01:31.500Z,9.45
2023-05-08T10:02:33.204Z,8.23
2023-05-08T10:03:48.471Z,9.35
2023-05-08T10:04:49.929Z,9.93
2023-05-08T10:05:51.551Z,9.35
2023-05-08T10:06:58.501Z,8.43
2023-05-08T10:08:17.843Z,12.27
2023-05-08T10:09:19.423Z,15.35
2023-05-08T10:10:28.527Z,8.65
2023-05-08T10:11:29.908Z,12.68
2023-05-08T10:12:32.206Z,10.05
2023-05-08T10:13:33.913Z,8.98
2023-05-08T10:14:35.344Z,7.95
2023-05-08T10:15:38.273Z,7.13
2023-05-08T10:16:44.016Z,9.45
2023-05-08T10:17:55.962Z,10.15
2023-05-08T10:19:02.344Z,10.25
2023-05-08T10:20:07.071Z,7.90
2023-05-08T10:21:09.046Z,7.82
2023-05-08T10:22:12.578Z,6.63
2023-05-08T10:23:19.016Z,9.15
2023-05-08T10:24:29.260Z,7.35
2023-05-08T10:25:34.002Z,7.80
2023-05-08T10:26:38.089Z,8.55
2023-05-08T10:27:55.196Z,6.93
2023-05-08T10:28:57.785Z,8.00
2023-05-08T10:30:04.185Z,10.85
2023-05-08T10:31:07.965Z,10.75
2023-05-08T10:32:10.592Z,7.25
2023-05-08T10:33:15.301Z,9.10
2023-05-08T10:34:20.725Z,6.82
2023-05-08T10:35:22.806Z,5.50
2023-05-08T11:27:37.844Z,9.55
2023-05-08T11:30:22.653Z,8.57
2023-05-08T11:31:24.371Z,6.63
2023-05-08T11:33:55.533Z,6.50
2023-05-08T11:34:57.353Z,7.40
2023-05-08T11:36:20.549Z,13.65
2023-05-08T11:39:07.922Z,7.68
2023-05-08T11:40:47.372Z,8.07
2023-05-08T11:43:24.265Z,6.78
2023-05-08T11:44:28.161Z,7.85
2023-05-08T11:45:30.812Z,7.25
2023-05-08T11:46:52.192Z,5.90
2023-05-08T11:48:00.971Z,9.07
2023-05-08T11:49:02.552Z,7.80
2023-05-08T11:50:04.727Z,7.30
2023-05-08T11:51:06.793Z,8.27
2023-05-08T11:52:08.238Z,7.70
2023-05-08T11:53:09.709Z,9.25
2023-05-08T11:54:20.971Z,8.70
2023-05-08T11:55:22.485Z,9.32
2023-05-08T11:56:24.636Z,10.50
2023-05-08T11:57:27.106Z,9.75
2023-05-08T11:58:28.663Z,11.50
2023-05-08T11:59:35.627Z,10.50
2023-05-08T12:00:41.132Z,8.93
2023-05-08T12:01:46.295Z,8.13
2023-05-08T12:02:50.098Z,8.23
2023-05-08T12:04:00.793Z,7.68
2023-05-08T12:05:03.132Z,17.38
2023-05-08T12:06:04.850Z,8.40
2023-05-08T12:07:06.287Z,9.52
2023-05-08T12:08:12.081Z,14.00
2023-05-08T12:09:18.350Z,11.38
2023-05-08T12:10:20.082Z,9.25
2023-05-08T12:11:27.741Z,9.98
2023-05-08T12:12:42.936Z,14.48
2023-05-08T12:13:51.562Z,10.90
2023-05-08T12:14:53.090Z,9.40
2023-05-08T12:15:59.072Z,13.27
2023-05-08T12:17:02.493Z,14.10
2023-05-08T12:18:04.221Z,10.75
2023-05-08T12:19:13.588Z,12.25
2023-05-08T12:20:19.340Z,12.05
2023-05-08T12:21:21.343Z,13.45
2023-05-08T12:22:22.764Z,13.25
2023-05-08T12:23:30.852Z,13.52
2023-05-08T12:24:32.379Z,10.95
2023-05-08T12:25:34.052Z,16.40
2023-05-08T12:26:37.583Z,11.70
2023-05-08T12:27:39.582Z,12.77
2023-05-08T12:28:44.500Z,11.68
2023-05-08T12:29:46.564Z,11.15
2023-05-08T12:30:49.620Z,11.55
2023-05-08T12:31:51.593Z,22.38
2023-05-08T12:32:53.447Z,16.08
2023-05-08T12:33:55.934Z,11.48
2023-05-08T12:34:57.637Z,12.82
2023-05-08T12:35:59.223Z,10.55
2023-05-08T12:37:04.634Z,19.55
2023-05-08T12:38:07.747Z,11.80
2023-05-08T12:39:13.852Z,75.55
2023-05-08T12:40:26.875Z,35.17
2023-05-08T12:41:28.452Z,15.85
2023-05-08T12:42:48.282Z,12.52
2023-05-08T12:43:49.758Z,16.38
2023-05-08T12:44:52.550Z,11.02
2023-05-08T12:45:54.168Z,9.75
2023-05-08T12:46:56.879Z,10.10
2023-05-08T12:48:03.647Z,9.13
2023-05-08T12:49:07.822Z,11.43
2023-05-08T12:50:10.170Z,12.00
2023-05-08T12:51:12.216Z,11.75
2023-05-08T12:52:13.890Z,19.13
2023-05-08T12:53:17.468Z,16.63
2023-05-08T12:54:18.943Z,12.30
2023-05-08T12:55:28.649Z,14.82
2023-05-08T12:56:30.234Z,13.98
2023-05-08T12:57:31.613Z,16.00
2023-05-08T12:58:34.473Z,16.80
2023-05-08T12:59:36.020Z,14.88
2023-05-08T13:00:37.373Z,13.50
2023-05-08T13:01:38.883Z,14.65
2023-05-08T13:02:49.022Z,23.02
2023-05-08T13:04:01.711Z,17.88
2023-05-08T13:05:05.800Z,14.88
2023-05-08T13:06:18.718Z,14.52
2023-05-08T13:07:20.107Z,13.07
2023-05-08T13:08:38.713Z,15.50
2023-05-08T13:09:55.267Z,17.30
2023-05-08T13:10:56.664Z,18.77
2023-05-08T13:11:58.921Z,13.77
2023-05-08T13:13:00.349Z,14.07
2023-05-08T13:14:01.834Z,16.42
2023-05-08T13:15:04.774Z,21.65
2023-05-08T13:16:07.751Z,14.43
2023-05-08T13:17:09.313Z,16.42
2023-05-08T13:18:11.083Z,13.32
2023-05-08T13:19:12.539Z,15.27
2023-05-08T13:20:14.573Z,15.15
2023-05-08T13:21:16.196Z,14.68
2023-05-08T13:22:17.717Z,23.52
2023-05-08T13:23:19.401Z,15.90
2023-05-08T13:24:21.297Z,14.10
2023-05-08T13:25:22.661Z,12.90
2023-05-08T13:26:25.858Z,14.50
2023-05-08T13:27:27.385Z,14.55
2023-05-08T13:28:28.943Z,16.42
2023-05-08T13:29:30.701Z,15.02
2023-05-08T13:30:32.212Z,15.18
2023-05-08T13:31:34.165Z,12.73
2023-05-08T13:32:35.714Z,15.13
2023-05-08T13:33:38.281Z,15.52
2023-05-08T13:34:47.279Z,18.70
2023-05-08T13:35:50.931Z,14.25
2023-05-08T13:36:52.859Z,17.48
2023-05-08T13:37:55.465Z,22.00
2023-05-08T13:38:57.454Z,13.35
2023-05-08T13:39:58.766Z,15.07
2023-05-08T13:41:00.360Z,16.42
2023-05-08T13:42:01.772Z,17.48
2023-05-08T13:43:03.421Z,15.57
2023-05-08T13:44:04.924Z,14.98
2023-05-08T13:45:07.787Z,19.10
2023-05-08T13:46:09.292Z,57.05
2023-05-08T13:47:11.003Z,58.10
2023-05-08T13:48:12.610Z,31.60
2023-05-08T13:49:14.281Z,32.88
2023-05-08T13:50:18.494Z,23.98
2023-05-08T13:51:27.394Z,14.38
2023-05-08T13:52:30.282Z,15.25
2023-05-08T13:53:31.682Z,15.55
2023-05-08T13:54:33.151Z,19.45
2023-05-08T13:55:36.169Z,19.38
2023-05-08T13:56:37.538Z,47.08
2023-05-08T13:57:39.547Z,20.40
2023-05-08T13:58:41.313Z,26.30
2023-05-08T13:59:42.966Z,45.50
2023-05-08T14:00:45.476Z,25.15
2023-05-08T14:01:46.945Z,16.63
2023-05-08T14:02:50.005Z,16.67
2023-05-08T14:03:53.565Z,18.23
2023-05-08T14:04:55.175Z,19.60
2023-05-08T14:05:56.683Z,16.58
2023-05-08T14:06:58.482Z,20.23
2023-05-08T14:07:59.882Z,24.35
2023-05-08T14:09:01.334Z,17.45
2023-05-08T14:10:03.064Z,15.85
2023-05-08T14:11:04.458Z,18.15
2023-05-08T14:12:06.261Z,15.60
2023-05-08T14:13:07.797Z,16.48
2023-05-08T14:14:09.363Z,15.35
2023-05-08T14:15:12.093Z,15.10
2023-05-08T14:16:16.108Z,16.65
2023-05-08T17:23:48.240Z,28.45
2023-05-08T17:24:49.651Z,30.00
2023-05-08T17:25:58.208Z,37.67
2023-05-08T17:26:59.824Z,27.85
2023-05-08T17:28:01.997Z,26.65
2023-05-08T17:29:03.565Z,29.30
2023-05-08T17:30:06.619Z,25.92
2023-05-08T17:31:08.014Z,31.63
2023-05-08T17:32:09.538Z,23.70
2023-05-08T17:33:11.060Z,25.83
2023-05-08T17:36:20.410Z,25.27
